sensor_id;sensor_type;location;lat;lon;timestamp;P1;durP1;ratioP1;P2;durP2;ratioP2
43807;SDS011;29438;50.664;10.098;2023-03-01T00:01:12;17.10;;;7.20;;
43807;SDS011;29438;50.664;10.098;2023-03-01T00:03:42;22.90;;;7.93;;
43807;SDS011;29438;50.664;10.098;2023-03-01T00:06:08;19.20;;;7.28;;
43807;SDS011;29438;50.664;10.098;2023-03-01T00:08:34;16.48;;;7.05;;
43807;SDS011;29438;50.664;10.098;2023-03-01T00:11:00;19.90;;;7.78;;
43807;SDS011;29438;50.664;10.098;2023-03-01T00:13:35;19.63;;;7.05;;
43807;SDS011;29438;50.664;10.098;2023-03-01T00:16:01;22.30;;;6.70;;
43807;SDS011;29438;50.664;10.098;2023-03-01T00:18:28;18.60;;;6.82;;
43807;SDS011;29438;50.664;10.098;2023-03-01T00:20:54;19.60;;;7.20;;
43807;SDS011;29438;50.664;10.098;2023-03-01T00:23:20;18.50;;;6.60;;
43807;SDS011;29438;50.664;10.098;2023-03-01T00:25:47;23.45;;;7.07;;
43807;SDS011;29438;50.664;10.098;2023-03-01T00:28:12;18.33;;;6.55;;
43807;SDS011;29438;50.664;10.098;2023-03-01T00:30:38;23.95;;;7.57;;
43807;SDS011;29438;50.664;10.098;2023-03-01T00:33:04;21.10;;;8.02;;
43807;SDS011;29438;50.664;10.098;2023-03-01T00:35:31;20.38;;;7.57;;
43807;SDS011;29438;50.664;10.098;2023-03-01T00:37:57;17.90;;;7.40;;
43807;SDS011;29438;50.664;10.098;2023-03-01T00:40:23;19.27;;;7.47;;
43807;SDS011;29438;50.664;10.098;2023-03-01T00:42:49;21.42;;;7.47;;
43807;SDS011;29438;50.664;10.098;2023-03-01T00:45:15;23.75;;;7.85;;
43807;SDS011;29438;50.664;10.098;2023-03-01T00:47:41;21.27;;;8.73;;
43807;SDS011;29438;50.664;10.098;2023-03-01T00:50:07;28.20;;;9.70;;
43807;SDS011;29438;50.664;10.098;2023-03-01T00:52:33;29.20;;;10.38;;
43807;SDS011;29438;50.664;10.098;2023-03-01T00:54:59;31.88;;;11.32;;
43807;SDS011;29438;50.664;10.098;2023-03-01T00:57:25;29.38;;;10.25;;
43807;SDS011;29438;50.664;10.098;2023-03-01T00:59:50;24.23;;;9.80;;
43807;SDS011;29438;50.664;10.098;2023-03-01T01:02:17;25.73;;;8.77;;
43807;SDS011;29438;50.664;10.098;2023-03-01T01:04:43;18.63;;;7.82;;
43807;SDS011;29438;50.664;10.098;2023-03-01T01:07:09;24.05;;;8.85;;
43807;SDS011;29438;50.664;10.098;2023-03-01T01:09:35;20.88;;;8.10;;
43807;SDS011;29438;50.664;10.098;2023-03-01T01:12:01;18.50;;;7.25;;
43807;SDS011;29438;50.664;10.098;2023-03-01T01:14:27;19.63;;;7.22;;
43807;SDS011;29438;50.664;10.098;2023-03-01T01:16:53;20.65;;;6.60;;
43807;SDS011;29438;50.664;10.098;2023-03-01T01:19:19;24.55;;;7.32;;
43807;SDS011;29438;50.664;10.098;2023-03-01T01:21:45;17.98;;;7.50;;
43807;SDS011;29438;50.664;10.098;2023-03-01T01:24:11;21.30;;;7.75;;
43807;SDS011;29438;50.664;10.098;2023-03-01T01:26:37;22.92;;;7.65;;
43807;SDS011;29438;50.664;10.098;2023-03-01T01:29:03;22.33;;;7.32;;
43807;SDS011;29438;50.664;10.098;2023-03-01T01:31:30;17.55;;;7.03;;
43807;SDS011;29438;50.664;10.098;2023-03-01T01:33:58;19.85;;;8.13;;
43807;SDS011;29438;50.664;10.098;2023-03-01T01:36:25;21.85;;;7.18;;
43807;SDS011;29438;50.664;10.098;2023-03-01T01:38:51;18.15;;;6.70;;
43807;SDS011;29438;50.664;10.098;2023-03-01T01:41:17;15.68;;;6.97;;
43807;SDS011;29438;50.664;10.098;2023-03-01T01:43:44;23.63;;;7.65;;
43807;SDS011;29438;50.664;10.098;2023-03-01T01:48:46;15.95;;;6.43;;
43807;SDS011;29438;50.664;10.098;2023-03-01T01:51:19;14.73;;;5.80;;
43807;SDS011;29438;50.664;10.098;2023-03-01T01:53:51;15.40;;;6.22;;
43807;SDS011;29438;50.664;10.098;2023-03-01T01:56:21;19.95;;;7.05;;
43807;SDS011;29438;50.664;10.098;2023-03-01T01:58:48;18.50;;;6.28;;
43807;SDS011;29438;50.664;10.098;2023-03-01T02:01:14;18.85;;;7.25;;
43807;SDS011;29438;50.664;10.098;2023-03-01T02:03:39;19.83;;;6.72;;
43807;SDS011;29438;50.664;10.098;2023-03-01T02:06:12;21.40;;;7.20;;
43807;SDS011;29438;50.664;10.098;2023-03-01T02:08:41;17.98;;;6.97;;
43807;SDS011;29438;50.664;10.098;2023-03-01T02:11:07;18.77;;;7.03;;
43807;SDS011;29438;50.664;10.098;2023-03-01T02:13:35;17.92;;;6.65;;
43807;SDS011;29438;50.664;10.098;2023-03-01T02:16:08;19.35;;;6.97;;
43807;SDS011;29438;50.664;10.098;2023-03-01T02:18:35;19.17;;;7.32;;
43807;SDS011;29438;50.664;10.098;2023-03-01T02:21:26;19.58;;;7.10;;
43807;SDS011;29438;50.664;10.098;2023-03-01T02:27:00;14.48;;;6.22;;
43807;SDS011;29438;50.664;10.098;2023-03-01T02:29:26;18.02;;;6.32;;
43807;SDS011;29438;50.664;10.098;2023-03-01T02:31:52;19.65;;;6.72;;
43807;SDS011;29438;50.664;10.098;2023-03-01T02:34:22;17.60;;;6.75;;
43807;SDS011;29438;50.664;10.098;2023-03-01T02:36:56;19.40;;;7.65;;
43807;SDS011;29438;50.664;10.098;2023-03-01T02:39:27;15.18;;;6.28;;
43807;SDS011;29438;50.664;10.098;2023-03-01T02:42:13;19.08;;;6.90;;
43807;SDS011;29438;50.664;10.098;2023-03-01T02:44:41;21.15;;;7.15;;
43807;SDS011;29438;50.664;10.098;2023-03-01T02:47:07;18.63;;;6.90;;
43807;SDS011;29438;50.664;10.098;2023-03-01T02:49:34;18.25;;;6.47;;
43807;SDS011;29438;50.664;10.098;2023-03-01T02:52:04;19.83;;;7.70;;
43807;SDS011;29438;50.664;10.098;2023-03-01T02:54:51;14.75;;;6.47;;
43807;SDS011;29438;50.664;10.098;2023-03-01T02:57:25;19.70;;;7.32;;
43807;SDS011;29438;50.664;10.098;2023-03-01T02:59:52;18.60;;;7.03;;
43807;SDS011;29438;50.664;10.098;2023-03-01T03:02:21;17.35;;;5.85;;
43807;SDS011;29438;50.664;10.098;2023-03-01T03:05:04;19.88;;;6.47;;
43807;SDS011;29438;50.664;10.098;2023-03-01T03:07:33;20.05;;;7.30;;
43807;SDS011;29438;50.664;10.098;2023-03-01T03:10:00;17.95;;;6.53;;
43807;SDS011;29438;50.664;10.098;2023-03-01T03:12:26;18.83;;;7.68;;
43807;SDS011;29438;50.664;10.098;2023-03-01T03:14:51;15.85;;;6.35;;
43807;SDS011;29438;50.664;10.098;2023-03-01T03:17:17;17.90;;;6.50;;
43807;SDS011;29438;50.664;10.098;2023-03-01T03:19:43;18.38;;;7.53;;
43807;SDS011;29438;50.664;10.098;2023-03-01T03:22:10;14.63;;;6.53;;
43807;SDS011;29438;50.664;10.098;2023-03-01T03:24:36;22.02;;;7.03;;
43807;SDS011;29438;50.664;10.098;2023-03-01T03:27:02;17.73;;;6.75;;
43807;SDS011;29438;50.664;10.098;2023-03-01T03:29:28;21.77;;;6.95;;
43807;SDS011;29438;50.664;10.098;2023-03-01T03:31:54;16.85;;;6.88;;
43807;SDS011;29438;50.664;10.098;2023-03-01T03:34:19;17.63;;;6.38;;
43807;SDS011;29438;50.664;10.098;2023-03-01T03:36:45;16.05;;;6.47;;
43807;SDS011;29438;50.664;10.098;2023-03-01T03:39:10;17.35;;;6.88;;
43807;SDS011;29438;50.664;10.098;2023-03-01T03:41:36;17.10;;;6.30;;
43807;SDS011;29438;50.664;10.098;2023-03-01T03:44:01;16.17;;;6.22;;
43807;SDS011;29438;50.664;10.098;2023-03-01T03:46:27;17.80;;;6.78;;
43807;SDS011;29438;50.664;10.098;2023-03-01T03:48:52;17.65;;;6.85;;
43807;SDS011;29438;50.664;10.098;2023-03-01T03:51:18;18.52;;;6.18;;
43807;SDS011;29438;50.664;10.098;2023-03-01T03:53:44;15.20;;;6.72;;
43807;SDS011;29438;50.664;10.098;2023-03-01T03:56:10;21.75;;;7.30;;
43807;SDS011;29438;50.664;10.098;2023-03-01T03:58:36;21.42;;;7.40;;
43807;SDS011;29438;50.664;10.098;2023-03-01T04:01:02;17.45;;;6.78;;
43807;SDS011;29438;50.664;10.098;2023-03-01T04:03:29;19.70;;;7.40;;
43807;SDS011;29438;50.664;10.098;2023-03-01T04:05:57;16.83;;;7.22;;
43807;SDS011;29438;50.664;10.098;2023-03-01T04:08:23;20.95;;;7.93;;
43807;SDS011;29438;50.664;10.098;2023-03-01T04:10:50;20.52;;;6.82;;
43807;SDS011;29438;50.664;10.098;2023-03-01T04:13:19;18.85;;;6.97;;
43807;SDS011;29438;50.664;10.098;2023-03-01T04:15:50;20.38;;;7.47;;
43807;SDS011;29438;50.664;10.098;2023-03-01T04:18:16;19.25;;;7.32;;
43807;SDS011;29438;50.664;10.098;2023-03-01T04:20:43;17.50;;;6.32;;
43807;SDS011;29438;50.664;10.098;2023-03-01T04:23:11;16.25;;;6.32;;
43807;SDS011;29438;50.664;10.098;2023-03-01T04:25:51;21.40;;;7.25;;
43807;SDS011;29438;50.664;10.098;2023-03-01T04:28:22;19.42;;;7.45;;
43807;SDS011;29438;50.664;10.098;2023-03-01T04:30:50;17.58;;;6.75;;
43807;SDS011;29438;50.664;10.098;2023-03-01T04:33:17;12.13;;;5.88;;
43807;SDS011;29438;50.664;10.098;2023-03-01T04:35:43;15.90;;;6.70;;
43807;SDS011;29438;50.664;10.098;2023-03-01T04:38:09;18.00;;;6.47;;
43807;SDS011;29438;50.664;10.098;2023-03-01T04:40:35;21.08;;;6.97;;
43807;SDS011;29438;50.664;10.098;2023-03-01T04:43:01;18.85;;;6.72;;
43807;SDS011;29438;50.664;10.098;2023-03-01T04:45:27;18.38;;;6.22;;
43807;SDS011;29438;50.664;10.098;2023-03-01T04:47:52;19.67;;;7.20;;
43807;SDS011;29438;50.664;10.098;2023-03-01T04:50:18;19.33;;;6.65;;
43807;SDS011;29438;50.664;10.098;2023-03-01T04:52:48;19.80;;;7.22;;
43807;SDS011;29438;50.664;10.098;2023-03-01T04:55:14;18.10;;;5.97;;
43807;SDS011;29438;50.664;10.098;2023-03-01T04:57:40;18.88;;;6.72;;
43807;SDS011;29438;50.664;10.098;2023-03-01T05:00:08;19.40;;;6.82;;
43807;SDS011;29438;50.664;10.098;2023-03-01T05:02:54;17.27;;;6.97;;
43807;SDS011;29438;50.664;10.098;2023-03-01T05:05:24;18.30;;;7.22;;
43807;SDS011;29438;50.664;10.098;2023-03-01T05:07:59;19.08;;;7.38;;
43807;SDS011;29438;50.664;10.098;2023-03-01T05:10:27;18.80;;;6.30;;
43807;SDS011;29438;50.664;10.098;2023-03-01T05:12:55;18.30;;;6.70;;
43807;SDS011;29438;50.664;10.098;2023-03-01T05:15:22;18.88;;;7.30;;
43807;SDS011;29438;50.664;10.098;2023-03-01T05:17:50;21.23;;;7.10;;
43807;SDS011;29438;50.664;10.098;2023-03-01T05:20:16;20.17;;;7.75;;
43807;SDS011;29438;50.664;10.098;2023-03-01T05:22:42;17.88;;;6.55;;
43807;SDS011;29438;50.664;10.098;2023-03-01T05:25:08;22.80;;;7.68;;
43807;SDS011;29438;50.664;10.098;2023-03-01T05:27:35;19.77;;;7.32;;
43807;SDS011;29438;50.664;10.098;2023-03-01T05:30:01;19.20;;;7.30;;
43807;SDS011;29438;50.664;10.098;2023-03-01T05:32:38;15.45;;;7.10;;
43807;SDS011;29438;50.664;10.098;2023-03-01T05:35:08;23.17;;;7.32;;
43807;SDS011;29438;50.664;10.098;2023-03-01T05:37:38;18.40;;;7.13;;
43807;SDS011;29438;50.664;10.098;2023-03-01T05:40:08;21.10;;;7.70;;
43807;SDS011;29438;50.664;10.098;2023-03-01T05:42:40;18.40;;;7.00;;
43807;SDS011;29438;50.664;10.098;2023-03-01T05:45:07;22.67;;;10.32;;
43807;SDS011;29438;50.664;10.098;2023-03-01T05:47:34;21.58;;;8.32;;
43807;SDS011;29438;50.664;10.098;2023-03-01T05:50:00;23.45;;;9.13;;
43807;SDS011;29438;50.664;10.098;2023-03-01T05:52:26;24.70;;;8.77;;
43807;SDS011;29438;50.664;10.098;2023-03-01T05:54:51;28.75;;;8.88;;
43807;SDS011;29438;50.664;10.098;2023-03-01T05:57:17;24.55;;;9.60;;
43807;SDS011;29438;50.664;10.098;2023-03-01T05:59:43;25.75;;;9.35;;
43807;SDS011;29438;50.664;10.098;2023-03-01T06:02:08;22.83;;;8.30;;
43807;SDS011;29438;50.664;10.098;2023-03-01T06:04:34;23.27;;;8.52;;
43807;SDS011;29438;50.664;10.098;2023-03-01T06:06:59;23.30;;;8.82;;
43807;SDS011;29438;50.664;10.098;2023-03-01T06:09:25;23.13;;;8.93;;
43807;SDS011;29438;50.664;10.098;2023-03-01T06:11:50;25.02;;;8.32;;
43807;SDS011;29438;50.664;10.098;2023-03-01T06:14:16;20.88;;;8.25;;
43807;SDS011;29438;50.664;10.098;2023-03-01T06:16:42;23.48;;;9.07;;
43807;SDS011;29438;50.664;10.098;2023-03-01T06:19:07;25.90;;;9.05;;
43807;SDS011;29438;50.664;10.098;2023-03-01T06:21:32;24.42;;;8.82;;
43807;SDS011;29438;50.664;10.098;2023-03-01T06:23:58;22.92;;;8.68;;
43807;SDS011;29438;50.664;10.098;2023-03-01T06:26:23;26.13;;;10.23;;
43807;SDS011;29438;50.664;10.098;2023-03-01T06:28:49;26.17;;;9.90;;
43807;SDS011;29438;50.664;10.098;2023-03-01T06:31:14;21.38;;;9.05;;
43807;SDS011;29438;50.664;10.098;2023-03-01T06:33:40;23.55;;;8.00;;
43807;SDS011;29438;50.664;10.098;2023-03-01T06:36:06;24.13;;;9.00;;
43807;SDS011;29438;50.664;10.098;2023-03-01T06:38:32;27.63;;;9.25;;
43807;SDS011;29438;50.664;10.098;2023-03-01T06:40:57;23.58;;;8.85;;
43807;SDS011;29438;50.664;10.098;2023-03-01T06:43:23;26.67;;;8.85;;
43807;SDS011;29438;50.664;10.098;2023-03-01T06:45:49;24.10;;;9.77;;
43807;SDS011;29438;50.664;10.098;2023-03-01T06:48:15;21.50;;;8.90;;
43807;SDS011;29438;50.664;10.098;2023-03-01T06:50:41;19.25;;;7.72;;
43807;SDS011;29438;50.664;10.098;2023-03-01T06:53:06;20.58;;;8.15;;
43807;SDS011;29438;50.664;10.098;2023-03-01T06:55:32;19.60;;;7.85;;
43807;SDS011;29438;50.664;10.098;2023-03-01T06:57:58;18.02;;;7.53;;
43807;SDS011;29438;50.664;10.098;2023-03-01T07:00:25;17.42;;;7.40;;
43807;SDS011;29438;50.664;10.098;2023-03-01T07:02:51;17.42;;;7.70;;
43807;SDS011;29438;50.664;10.098;2023-03-01T07:05:17;19.30;;;7.53;;
43807;SDS011;29438;50.664;10.098;2023-03-01T07:07:42;18.13;;;7.40;;
43807;SDS011;29438;50.664;10.098;2023-03-01T07:10:08;20.10;;;7.75;;
43807;SDS011;29438;50.664;10.098;2023-03-01T07:12:34;19.40;;;7.32;;
43807;SDS011;29438;50.664;10.098;2023-03-01T07:14:59;17.98;;;7.28;;
43807;SDS011;29438;50.664;10.098;2023-03-01T07:17:25;18.30;;;7.93;;
43807;SDS011;29438;50.664;10.098;2023-03-01T07:19:50;19.17;;;7.53;;
43807;SDS011;29438;50.664;10.098;2023-03-01T07:22:16;16.42;;;7.63;;
43807;SDS011;29438;50.664;10.098;2023-03-01T07:24:42;17.75;;;7.95;;
43807;SDS011;29438;50.664;10.098;2023-03-01T07:27:08;18.35;;;7.65;;
43807;SDS011;29438;50.664;10.098;2023-03-01T07:29:33;18.65;;;7.90;;
43807;SDS011;29438;50.664;10.098;2023-03-01T07:32:01;20.20;;;8.00;;
43807;SDS011;29438;50.664;10.098;2023-03-01T07:34:27;18.92;;;8.25;;
43807;SDS011;29438;50.664;10.098;2023-03-01T07:36:52;18.15;;;7.95;;
43807;SDS011;29438;50.664;10.098;2023-03-01T07:39:18;18.23;;;7.40;;
43807;SDS011;29438;50.664;10.098;2023-03-01T07:41:44;18.85;;;7.47;;
43807;SDS011;29438;50.664;10.098;2023-03-01T07:44:09;17.02;;;6.68;;
43807;SDS011;29438;50.664;10.098;2023-03-01T07:46:35;17.05;;;7.95;;
43807;SDS011;29438;50.664;10.098;2023-03-01T07:49:01;17.55;;;7.35;;
43807;SDS011;29438;50.664;10.098;2023-03-01T07:51:27;18.08;;;7.88;;
43807;SDS011;29438;50.664;10.098;2023-03-01T07:53:53;16.08;;;7.55;;
43807;SDS011;29438;50.664;10.098;2023-03-01T07:56:18;15.27;;;7.30;;
43807;SDS011;29438;50.664;10.098;2023-03-01T07:58:45;16.88;;;7.57;;
43807;SDS011;29438;50.664;10.098;2023-03-01T08:01:12;16.77;;;7.15;;
43807;SDS011;29438;50.664;10.098;2023-03-01T08:03:39;15.65;;;7.03;;
43807;SDS011;29438;50.664;10.098;2023-03-01T08:06:06;18.98;;;7.93;;
43807;SDS011;29438;50.664;10.098;2023-03-01T08:08:33;16.65;;;7.60;;
43807;SDS011;29438;50.664;10.098;2023-03-01T08:11:00;17.65;;;8.00;;
43807;SDS011;29438;50.664;10.098;2023-03-01T08:13:27;14.93;;;7.63;;
43807;SDS011;29438;50.664;10.098;2023-03-01T08:15:53;16.27;;;7.40;;
43807;SDS011;29438;50.664;10.098;2023-03-01T08:18:19;15.13;;;7.18;;
43807;SDS011;29438;50.664;10.098;2023-03-01T08:20:47;17.13;;;7.30;;
43807;SDS011;29438;50.664;10.098;2023-03-01T08:23:13;12.13;;;6.00;;
43807;SDS011;29438;50.664;10.098;2023-03-01T08:25:38;15.13;;;6.43;;
43807;SDS011;29438;50.664;10.098;2023-03-01T08:28:04;16.95;;;7.40;;
43807;SDS011;29438;50.664;10.098;2023-03-01T08:30:30;17.08;;;7.15;;
43807;SDS011;29438;50.664;10.098;2023-03-01T08:32:56;15.18;;;6.35;;
43807;SDS011;29438;50.664;10.098;2023-03-01T08:35:22;16.88;;;7.63;;
43807;SDS011;29438;50.664;10.098;2023-03-01T08:37:48;16.13;;;6.47;;
43807;SDS011;29438;50.664;10.098;2023-03-01T08:40:13;15.07;;;7.00;;
43807;SDS011;29438;50.664;10.098;2023-03-01T08:42:39;14.65;;;6.18;;
43807;SDS011;29438;50.664;10.098;2023-03-01T08:45:07;14.93;;;5.93;;
43807;SDS011;29438;50.664;10.098;2023-03-01T08:47:34;16.00;;;7.32;;
43807;SDS011;29438;50.664;10.098;2023-03-01T08:49:59;15.52;;;6.68;;
43807;SDS011;29438;50.664;10.098;2023-03-01T08:52:25;19.02;;;8.27;;
43807;SDS011;29438;50.664;10.098;2023-03-01T08:54:51;16.13;;;6.18;;
43807;SDS011;29438;50.664;10.098;2023-03-01T08:57:17;16.25;;;7.00;;
43807;SDS011;29438;50.664;10.098;2023-03-01T08:59:42;14.80;;;7.30;;
43807;SDS011;29438;50.664;10.098;2023-03-01T09:02:12;16.17;;;6.95;;
43807;SDS011;29438;50.664;10.098;2023-03-01T09:04:39;15.82;;;7.50;;
43807;SDS011;29438;50.664;10.098;2023-03-01T09:07:05;16.75;;;7.15;;
43807;SDS011;29438;50.664;10.098;2023-03-01T09:09:31;14.77;;;6.70;;
43807;SDS011;29438;50.664;10.098;2023-03-01T09:11:56;15.02;;;7.18;;
43807;SDS011;29438;50.664;10.098;2023-03-01T09:14:22;16.27;;;7.97;;
43807;SDS011;29438;50.664;10.098;2023-03-01T09:16:47;15.90;;;6.97;;
43807;SDS011;29438;50.664;10.098;2023-03-01T09:19:13;14.80;;;6.70;;
43807;SDS011;29438;50.664;10.098;2023-03-01T09:21:39;16.55;;;7.15;;
43807;SDS011;29438;50.664;10.098;2023-03-01T09:24:05;16.75;;;7.07;;
43807;SDS011;29438;50.664;10.098;2023-03-01T09:26:31;13.30;;;6.80;;
43807;SDS011;29438;50.664;10.098;2023-03-01T09:28:57;15.55;;;7.22;;
43807;SDS011;29438;50.664;10.098;2023-03-01T09:31:23;13.80;;;6.97;;
43807;SDS011;29438;50.664;10.098;2023-03-01T09:33:50;14.57;;;7.15;;
43807;SDS011;29438;50.664;10.098;2023-03-01T09:36:18;16.10;;;6.72;;
43807;SDS011;29438;50.664;10.098;2023-03-01T09:38:46;13.75;;;6.78;;
43807;SDS011;29438;50.664;10.098;2023-03-01T09:41:20;15.40;;;7.50;;
43807;SDS011;29438;50.664;10.098;2023-03-01T09:44:10;13.73;;;6.55;;
43807;SDS011;29438;50.664;10.098;2023-03-01T09:46:44;13.55;;;6.32;;
43807;SDS011;29438;50.664;10.098;2023-03-01T09:49:26;13.98;;;6.85;;
43807;SDS011;29438;50.664;10.098;2023-03-01T09:54:46;15.32;;;6.63;;
43807;SDS011;29438;50.664;10.098;2023-03-01T09:57:17;12.95;;;6.65;;
43807;SDS011;29438;50.664;10.098;2023-03-01T09:59:56;13.25;;;5.97;;
43807;SDS011;29438;50.664;10.098;2023-03-01T10:02:51;13.23;;;6.95;;
43807;SDS011;29438;50.664;10.098;2023-03-01T10:11:14;16.58;;;6.88;;
43807;SDS011;29438;50.664;10.098;2023-03-01T10:19:52;13.85;;;6.40;;
43807;SDS011;29438;50.664;10.098;2023-03-01T10:22:20;15.45;;;6.75;;
43807;SDS011;29438;50.664;10.098;2023-03-01T10:24:57;16.23;;;7.28;;
43807;SDS011;29438;50.664;10.098;2023-03-01T10:27:26;14.48;;;6.18;;
43807;SDS011;29438;50.664;10.098;2023-03-01T10:30:20;13.80;;;6.78;;
43807;SDS011;29438;50.664;10.098;2023-03-01T10:32:46;15.35;;;7.30;;
43807;SDS011;29438;50.664;10.098;2023-03-01T10:35:20;15.15;;;6.55;;
43807;SDS011;29438;50.664;10.098;2023-03-01T10:37:58;7.97;;;4.05;;
43807;SDS011;29438;50.664;10.098;2023-03-01T10:40:32;13.55;;;6.72;;
43807;SDS011;29438;50.664;10.098;2023-03-01T10:42:59;13.85;;;6.32;;
43807;SDS011;29438;50.664;10.098;2023-03-01T10:50:48;12.82;;;6.35;;
43807;SDS011;29438;50.664;10.098;2023-03-01T10:53:29;12.35;;;5.50;;
43807;SDS011;29438;50.664;10.098;2023-03-01T10:56:10;12.48;;;5.45;;
43807;SDS011;29438;50.664;10.098;2023-03-01T10:58:41;11.43;;;5.05;;
43807;SDS011;29438;50.664;10.098;2023-03-01T11:01:26;11.07;;;5.40;;
43807;SDS011;29438;50.664;10.098;2023-03-01T11:06:32;13.93;;;5.65;;
43807;SDS011;29438;50.664;10.098;2023-03-01T11:09:12;12.20;;;5.28;;
43807;SDS011;29438;50.664;10.098;2023-03-01T11:11:55;15.10;;;6.38;;
43807;SDS011;29438;50.664;10.098;2023-03-01T11:14:22;10.52;;;5.57;;
43807;SDS011;29438;50.664;10.098;2023-03-01T11:20:13;12.63;;;5.65;;
43807;SDS011;29438;50.664;10.098;2023-03-01T11:23:10;14.10;;;5.88;;
43807;SDS011;29438;50.664;10.098;2023-03-01T11:25:46;11.85;;;4.82;;
43807;SDS011;29438;50.664;10.098;2023-03-01T11:28:17;11.00;;;5.60;;
43807;SDS011;29438;50.664;10.098;2023-03-01T11:36:31;10.13;;;5.03;;
43807;SDS011;29438;50.664;10.098;2023-03-01T11:38:57;13.68;;;5.60;;
43807;SDS011;29438;50.664;10.098;2023-03-01T11:41:37;11.85;;;5.35;;
43807;SDS011;29438;50.664;10.098;2023-03-01T11:44:20;13.73;;;6.00;;
43807;SDS011;29438;50.664;10.098;2023-03-01T11:55:36;11.52;;;5.65;;
43807;SDS011;29438;50.664;10.098;2023-03-01T12:07:00;14.95;;;6.30;;
43807;SDS011;29438;50.664;10.098;2023-03-01T12:09:38;14.43;;;6.70;;
43807;SDS011;29438;50.664;10.098;2023-03-01T12:26:20;13.70;;;6.10;;
43807;SDS011;29438;50.664;10.098;2023-03-01T12:31:57;14.80;;;5.72;;
43807;SDS011;29438;50.664;10.098;2023-03-01T12:34:44;12.20;;;5.68;;
43807;SDS011;29438;50.664;10.098;2023-03-01T12:37:25;12.90;;;5.95;;
43807;SDS011;29438;50.664;10.098;2023-03-01T12:43:09;9.55;;;4.28;;
43807;SDS011;29438;50.664;10.098;2023-03-01T12:48:40;16.25;;;6.35;;
43807;SDS011;29438;50.664;10.098;2023-03-01T12:51:24;13.10;;;5.68;;
43807;SDS011;29438;50.664;10.098;2023-03-01T12:53:54;14.38;;;5.93;;
43807;SDS011;29438;50.664;10.098;2023-03-01T12:56:27;10.70;;;5.88;;
43807;SDS011;29438;50.664;10.098;2023-03-01T13:04:24;12.38;;;6.07;;
43807;SDS011;29438;50.664;10.098;2023-03-01T13:09:50;12.85;;;5.88;;
43807;SDS011;29438;50.664;10.098;2023-03-01T13:12:46;9.82;;;4.53;;
43807;SDS011;29438;50.664;10.098;2023-03-01T13:15:24;16.35;;;6.63;;
43807;SDS011;29438;50.664;10.098;2023-03-01T13:17:58;13.25;;;6.13;;
43807;SDS011;29438;50.664;10.098;2023-03-01T13:20:48;14.07;;;5.78;;
43807;SDS011;29438;50.664;10.098;2023-03-01T13:31:56;17.35;;;7.03;;
43807;SDS011;29438;50.664;10.098;2023-03-01T13:33:57;15.68;;;6.47;;
43807;SDS011;29438;50.664;10.098;2023-03-01T13:39:38;10.90;;;5.35;;
43807;SDS011;29438;50.664;10.098;2023-03-01T13:41:57;14.07;;;6.25;;
43807;SDS011;29438;50.664;10.098;2023-03-01T13:44:25;15.57;;;6.18;;
43807;SDS011;29438;50.664;10.098;2023-03-01T13:50:15;13.52;;;5.75;;
43807;SDS011;29438;50.664;10.098;2023-03-01T13:55:41;13.48;;;6.20;;
43807;SDS011;29438;50.664;10.098;2023-03-01T13:58:15;15.40;;;6.80;;
43807;SDS011;29438;50.664;10.098;2023-03-01T14:00:46;12.50;;;6.10;;
43807;SDS011;29438;50.664;10.098;2023-03-01T14:03:14;15.82;;;7.68;;
43807;SDS011;29438;50.664;10.098;2023-03-01T14:05:57;13.98;;;6.35;;
43807;SDS011;29438;50.664;10.098;2023-03-01T14:08:26;19.65;;;6.72;;
43807;SDS011;29438;50.664;10.098;2023-03-01T14:13:31;11.73;;;5.90;;
43807;SDS011;29438;50.664;10.098;2023-03-01T14:19:32;14.55;;;6.50;;
43807;SDS011;29438;50.664;10.098;2023-03-01T14:22:13;13.93;;;5.28;;
43807;SDS011;29438;50.664;10.098;2023-03-01T14:24:57;15.40;;;6.63;;
43807;SDS011;29438;50.664;10.098;2023-03-01T14:27:26;11.07;;;5.28;;
43807;SDS011;29438;50.664;10.098;2023-03-01T14:30:01;14.70;;;5.28;;
43807;SDS011;29438;50.664;10.098;2023-03-01T14:32:34;14.32;;;5.53;;
43807;SDS011;29438;50.664;10.098;2023-03-01T14:35:00;13.70;;;6.07;;
43807;SDS011;29438;50.664;10.098;2023-03-01T14:37:27;11.98;;;5.38;;
43807;SDS011;29438;50.664;10.098;2023-03-01T14:39:54;12.30;;;4.72;;
43807;SDS011;29438;50.664;10.098;2023-03-01T14:42:22;13.10;;;6.13;;
43807;SDS011;29438;50.664;10.098;2023-03-01T14:44:50;14.10;;;5.95;;
43807;SDS011;29438;50.664;10.098;2023-03-01T14:47:25;15.73;;;5.70;;
43807;SDS011;29438;50.664;10.098;2023-03-01T14:49:56;13.13;;;5.65;;
43807;SDS011;29438;50.664;10.098;2023-03-01T14:52:41;11.68;;;4.85;;
43807;SDS011;29438;50.664;10.098;2023-03-01T14:55:15;13.38;;;5.35;;
43807;SDS011;29438;50.664;10.098;2023-03-01T14:57:47;15.30;;;6.30;;
43807;SDS011;29438;50.664;10.098;2023-03-01T15:00:21;11.73;;;5.43;;
43807;SDS011;29438;50.664;10.098;2023-03-01T15:02:55;14.05;;;5.53;;
43807;SDS011;29438;50.664;10.098;2023-03-01T15:05:26;13.20;;;6.03;;
43807;SDS011;29438;50.664;10.098;2023-03-01T15:07:57;12.45;;;5.75;;
43807;SDS011;29438;50.664;10.098;2023-03-01T15:10:29;14.10;;;5.85;;
43807;SDS011;29438;50.664;10.098;2023-03-01T15:13:09;12.27;;;5.25;;
43807;SDS011;29438;50.664;10.098;2023-03-01T15:15:46;14.43;;;5.43;;
43807;SDS011;29438;50.664;10.098;2023-03-01T15:18:14;12.23;;;5.50;;
43807;SDS011;29438;50.664;10.098;2023-03-01T15:20:45;10.35;;;4.47;;
43807;SDS011;29438;50.664;10.098;2023-03-01T15:23:18;13.05;;;5.55;;
43807;SDS011;29438;50.664;10.098;2023-03-01T15:25:47;14.02;;;5.90;;
43807;SDS011;29438;50.664;10.098;2023-03-01T15:28:22;12.93;;;5.80;;
43807;SDS011;29438;50.664;10.098;2023-03-01T15:30:57;17.10;;;5.53;;
43807;SDS011;29438;50.664;10.098;2023-03-01T15:33:30;14.75;;;5.57;;
43807;SDS011;29438;50.664;10.098;2023-03-01T15:35:59;16.13;;;6.40;;
43807;SDS011;29438;50.664;10.098;2023-03-01T15:38:50;13.20;;;5.18;;
43807;SDS011;29438;50.664;10.098;2023-03-01T15:41:31;12.33;;;5.70;;
43807;SDS011;29438;50.664;10.098;2023-03-01T15:44:14;12.07;;;4.97;;
43807;SDS011;29438;50.664;10.098;2023-03-01T15:46:50;14.15;;;5.90;;
43807;SDS011;29438;50.664;10.098;2023-03-01T15:51:56;12.77;;;5.10;;
43807;SDS011;29438;50.664;10.098;2023-03-01T15:54:22;14.50;;;5.53;;
43807;SDS011;29438;50.664;10.098;2023-03-01T15:56:50;13.30;;;5.65;;
43807;SDS011;29438;50.664;10.098;2023-03-01T15:59:16;11.57;;;5.28;;
43807;SDS011;29438;50.664;10.098;2023-03-01T16:01:42;14.32;;;6.90;;
43807;SDS011;29438;50.664;10.098;2023-03-01T16:04:09;10.55;;;5.03;;
43807;SDS011;29438;50.664;10.098;2023-03-01T16:06:38;13.40;;;5.15;;
43807;SDS011;29438;50.664;10.098;2023-03-01T16:09:04;10.05;;;4.32;;
43807;SDS011;29438;50.664;10.098;2023-03-01T16:11:29;10.95;;;4.70;;
43807;SDS011;29438;50.664;10.098;2023-03-01T16:13:57;13.52;;;5.85;;
43807;SDS011;29438;50.664;10.098;2023-03-01T16:16:22;13.50;;;5.90;;
43807;SDS011;29438;50.664;10.098;2023-03-01T16:18:48;17.60;;;5.90;;
43807;SDS011;29438;50.664;10.098;2023-03-01T16:21:15;19.80;;;7.78;;
43807;SDS011;29438;50.664;10.098;2023-03-01T16:23:45;15.38;;;5.97;;
43807;SDS011;29438;50.664;10.098;2023-03-01T16:26:10;15.05;;;6.97;;